createdAt,value
2023-04-18T00:00:38.214Z,1355.00
2023-04-18T00:01:38.346Z,1356.00
2023-04-18T00:02:38.558Z,1352.00
2023-04-18T00:03:38.617Z,1352.00
2023-04-18T00:04:38.671Z,1353.00
2023-04-18T00:05:38.588Z,1359.00
2023-04-18T00:06:38.639Z,1360.00
2023-04-18T00:07:39.503Z,1358.00
2023-04-18T00:08:38.789Z,1353.00
2023-04-18T00:09:38.888Z,1351.00
2023-04-18T00:10:38.934Z,1346.00
2023-04-18T00:11:39.018Z,1348.00
2023-04-18T00:12:39.066Z,1349.00
2023-04-18T00:13:39.137Z,1348.00
2023-04-18T00:14:39.195Z,1348.00
2023-04-18T00:15:39.259Z,1347.00
2023-04-18T00:16:39.383Z,1347.00
2023-04-18T00:17:39.421Z,1346.00
2023-04-18T00:18:39.463Z,1342.00
2023-04-18T00:19:39.571Z,1344.00
2023-04-18T00:20:39.585Z,1344.00
2023-04-18T00:21:39.655Z,1343.00
2023-04-18T00:22:39.722Z,1339.00
2023-04-18T00:23:39.830Z,1344.00
2023-04-18T00:24:39.869Z,1340.00
2023-04-18T00:25:40.010Z,1338.00
2023-04-18T00:26:39.991Z,1335.00
2023-04-18T00:27:40.074Z,1334.00
2023-04-18T00:28:40.147Z,1333.00
2023-04-18T00:29:40.504Z,1336.00
2023-04-18T00:30:40.313Z,1337.00
2023-04-18T00:31:40.351Z,1338.00
2023-04-18T00:32:40.455Z,1337.00
2023-04-18T00:33:40.996Z,1335.00
2023-04-18T00:34:40.586Z,1342.00
2023-04-18T00:35:40.716Z,1345.00
2023-04-18T00:36:40.697Z,1346.00
2023-04-18T00:37:40.793Z,1343.00
2023-04-18T00:38:40.852Z,1341.00
2023-04-18T00:39:40.980Z,1342.00
2023-04-18T00:40:40.969Z,1340.00
2023-04-18T00:41:41.029Z,1336.00
2023-04-18T00:42:41.106Z,1336.00
2023-04-18T00:43:41.174Z,1333.00
2023-04-18T00:44:41.249Z,1331.00
2023-04-18T00:45:41.334Z,1333.00
2023-04-18T00:46:41.481Z,1327.00
2023-04-18T00:47:41.595Z,1324.00
2023-04-18T00:48:42.009Z,1326.00
2023-04-18T00:49:41.612Z,1323.00
2023-04-18T00:50:41.719Z,1323.00
2023-04-18T00:51:41.743Z,1323.00
2023-04-18T00:52:41.810Z,1325.00
2023-04-18T00:53:41.882Z,1328.00
2023-04-18T00:54:41.953Z,1326.00
2023-04-18T00:55:42.012Z,1326.00
2023-04-18T00:56:42.091Z,1328.00
2023-04-18T00:57:42.224Z,1327.00
2023-04-18T00:58:43.015Z,1328.00
2023-04-18T00:59:42.300Z,1328.00
2023-04-18T01:00:42.374Z,1326.00
2023-04-18T01:01:42.433Z,1321.00
2023-04-18T01:02:42.672Z,1320.00
2023-04-18T01:03:42.791Z,1320.00
2023-04-18T01:04:42.826Z,1321.00
2023-04-18T01:05:42.732Z,1320.00
2023-04-18T01:06:42.784Z,1318.00
2023-04-18T01:07:42.847Z,1313.00
2023-04-18T01:08:42.923Z,1314.00
2023-04-18T01:09:43.013Z,1314.00
2023-04-18T01:10:43.071Z,1314.00
2023-04-18T01:11:43.148Z,1315.00
2023-04-18T01:12:43.257Z,1312.00
2023-04-18T01:13:43.318Z,1308.00
2023-04-18T01:14:43.385Z,1310.00
2023-04-18T01:15:43.624Z,1308.00
2023-04-18T01:16:43.541Z,1307.00
2023-04-18T01:17:43.639Z,1309.00
2023-04-18T01:18:43.680Z,1308.00
2023-04-18T01:19:43.752Z,1310.00
2023-04-18T01:20:43.839Z,1311.00
2023-04-18T01:21:43.989Z,1312.00
2023-04-18T01:22:44.028Z,1311.00
2023-04-18T01:23:44.050Z,1311.00
2023-04-18T01:24:44.127Z,1311.00
2023-04-18T01:25:44.187Z,1306.00
2023-04-18T01:26:44.233Z,1305.00
2023-04-18T01:27:44.310Z,1307.00
2023-04-18T01:28:44.414Z,1312.00
2023-04-18T01:29:44.467Z,1313.00
2023-04-18T01:30:44.544Z,1312.00
2023-04-18T01:31:44.674Z,1312.00
2023-04-18T01:32:44.714Z,1310.00
2023-04-18T01:33:44.734Z,1310.00
2023-04-18T01:34:44.792Z,1311.00
2023-04-18T01:35:44.881Z,1308.00
2023-04-18T01:36:44.926Z,1308.00
2023-04-18T01:37:45.015Z,1308.00
2023-04-18T01:38:45.073Z,1309.00
2023-04-18T01:39:45.174Z,1307.00
2023-04-18T01:40:45.229Z,1308.00
2023-04-18T01:41:45.306Z,1308.00
2023-04-18T01:42:45.456Z,1309.00
2023-04-18T01:43:45.457Z,1310.00
2023-04-18T01:44:45.551Z,1307.00
2023-04-18T01:45:45.653Z,1305.00
2023-04-18T01:46:45.734Z,1304.00
2023-04-18T01:47:46.578Z,1303.00
2023-04-18T01:48:45.910Z,1303.00
2023-04-18T01:49:46.050Z,1297.00
2023-04-18T01:50:46.131Z,1304.00
2023-04-18T01:51:46.170Z,1303.00
2023-04-18T01:52:46.260Z,1301.00
2023-04-18T01:53:46.343Z,1303.00
2023-04-18T01:54:46.438Z,1301.00
2023-04-18T01:55:46.605Z,1300.00
2023-04-18T01:56:46.618Z,1301.00
2023-04-18T01:57:46.708Z,1301.00
2023-04-18T01:58:46.794Z,1300.00
2023-04-18T01:59:46.875Z,1300.00
2023-04-18T02:00:47.020Z,1299.00
2023-04-18T02:01:47.074Z,1296.00
2023-04-18T02:02:47.187Z,1292.00
2023-04-18T02:03:47.404Z,1290.00
2023-04-18T02:04:47.304Z,1291.00
2023-04-18T02:05:47.375Z,1293.00
2023-04-18T02:06:47.463Z,1294.00
2023-04-18T02:07:47.537Z,1294.00
2023-04-18T02:08:47.629Z,1291.00
2023-04-18T02:09:47.725Z,1289.00
2023-04-18T02:10:48.537Z,1289.00
2023-04-18T02:11:47.898Z,1290.00
2023-04-18T02:12:47.983Z,1288.00
2023-04-18T02:13:48.075Z,1291.00
2023-04-18T02:14:48.168Z,1296.00
2023-04-18T02:15:48.260Z,1294.00
2023-04-18T02:16:48.408Z,1291.00
2023-04-18T02:17:48.448Z,1290.00
2023-04-18T02:18:48.482Z,1292.00
2023-04-18T02:19:48.556Z,1291.00
2023-04-18T02:20:48.643Z,1290.00
2023-04-18T02:21:48.721Z,1292.00
2023-04-18T02:22:48.800Z,1288.00
2023-04-18T02:23:48.905Z,1289.00
2023-04-18T02:24:48.985Z,1291.00
2023-04-18T02:25:49.098Z,1290.00
2023-04-18T02:26:49.152Z,1289.00
2023-04-18T02:27:49.245Z,1291.00
2023-04-18T02:28:49.326Z,1288.00
2023-04-18T02:29:49.390Z,1290.00
2023-04-18T02:30:49.485Z,1289.00
2023-04-18T02:31:49.553Z,1291.00
2023-04-18T02:32:49.691Z,1290.00
2023-04-18T02:33:49.682Z,1286.00
2023-04-18T02:34:49.763Z,1283.00
2023-04-18T02:35:49.854Z,1284.00
2023-04-18T02:36:50.062Z,1282.00
2023-04-18T02:37:50.545Z,1280.00
2023-04-18T02:38:50.110Z,1280.00
2023-04-18T02:39:50.285Z,1281.00
2023-04-18T02:40:50.276Z,1282.00
2023-04-18T02:41:50.370Z,1283.00
2023-04-18T02:42:50.464Z,1282.00
2023-04-18T02:43:50.547Z,1280.00
2023-04-18T02:44:50.620Z,1283.00
2023-04-18T02:45:50.744Z,1280.00
2023-04-18T02:46:51.554Z,1278.00
2023-04-18T02:47:55.557Z,1276.00
2023-04-18T02:48:51.906Z,1274.00
2023-04-18T02:49:50.930Z,1274.00
2023-04-18T02:50:50.937Z,1275.00
2023-04-18T02:51:50.958Z,1274.00
2023-04-18T02:52:50.952Z,1273.00
2023-04-18T02:53:51.045Z,1269.00
2023-04-18T02:54:50.989Z,1271.00
2023-04-18T02:55:51.011Z,1270.00
2023-04-18T02:56:51.024Z,1268.00
2023-04-18T02:57:51.073Z,1269.00
2023-04-18T02:58:51.145Z,1266.00
2023-04-18T02:59:51.221Z,1266.00
2023-04-18T03:00:51.311Z,1269.00
2023-04-18T03:01:51.404Z,1270.00
2023-04-18T03:02:51.535Z,1271.00
2023-04-18T03:03:51.625Z,1267.00
2023-04-18T03:04:51.682Z,1268.00
2023-04-18T03:05:51.736Z,1271.00
2023-04-18T03:06:51.821Z,1271.00
2023-04-18T03:07:51.975Z,1273.00
2023-04-18T03:08:51.979Z,1273.00
2023-04-18T03:09:52.585Z,1273.00
2023-04-18T03:10:52.157Z,1273.00
2023-04-18T03:11:52.240Z,1269.00
2023-04-18T03:12:52.317Z,1265.00
2023-04-18T03:13:52.409Z,1263.00
2023-04-18T03:14:52.473Z,1261.00
2023-04-18T03:15:52.604Z,1260.00
2023-04-18T03:16:55.417Z,1259.00
2023-04-18T03:17:52.733Z,1259.00
2023-04-18T03:18:52.662Z,1263.00
2023-04-18T03:19:52.757Z,1264.00
2023-04-18T03:20:52.699Z,1263.00
2023-04-18T03:21:52.732Z,1261.00
2023-04-18T03:22:52.716Z,1264.00
2023-04-18T03:23:52.730Z,1265.00
2023-04-18T03:24:52.753Z,1268.00
2023-04-18T03:25:52.772Z,1269.00
2023-04-18T03:26:52.797Z,1271.00
2023-04-18T03:27:53.568Z,1271.00
2023-04-18T03:28:52.817Z,1271.00
2023-04-18T03:29:52.842Z,1267.00
2023-04-18T03:30:52.913Z,1266.00
2023-04-18T03:31:52.862Z,1264.00
2023-04-18T03:32:53.028Z,1268.00
2023-04-18T03:33:52.911Z,1268.00
2023-04-18T03:34:52.931Z,1267.00
2023-04-18T03:35:52.956Z,1266.00
2023-04-18T03:36:52.973Z,1266.00
2023-04-18T03:37:52.996Z,1266.00
2023-04-18T03:38:53.016Z,1266.00
2023-04-18T03:39:53.090Z,1263.00
2023-04-18T03:40:53.052Z,1262.00
2023-04-18T03:41:53.073Z,1263.00
2023-04-18T03:42:53.093Z,1261.00
2023-04-18T03:43:53.102Z,1259.00
2023-04-18T03:44:53.149Z,1258.00
2023-04-18T03:45:53.262Z,1254.00
2023-04-18T03:46:53.162Z,1252.00
2023-04-18T03:47:53.191Z,1252.00
2023-04-18T03:48:53.192Z,1252.00
2023-04-18T03:49:53.230Z,1249.00
2023-04-18T03:50:53.240Z,1248.00
2023-04-18T03:51:53.253Z,1251.00
2023-04-18T03:52:53.285Z,1251.00
2023-04-18T03:53:53.276Z,1249.00
2023-04-18T03:54:53.299Z,1248.00
2023-04-18T03:55:53.322Z,1248.00
2023-04-18T03:56:53.402Z,1249.00
2023-04-18T03:57:53.474Z,1248.00
2023-04-18T03:58:54.081Z,1250.00
2023-04-18T03:59:53.627Z,1249.00
2023-04-18T04:00:53.716Z,1251.00
2023-04-18T04:01:53.827Z,1250.00
2023-04-18T04:02:54.035Z,1247.00
2023-04-18T04:03:54.003Z,1244.00
2023-04-18T04:04:54.044Z,1241.00
2023-04-18T04:05:54.088Z,1243.00
2023-04-18T04:06:54.187Z,1239.00
2023-04-18T04:07:54.238Z,1241.00
2023-04-18T04:08:54.312Z,1240.00
2023-04-18T04:09:54.396Z,1240.00
2023-04-18T04:10:54.529Z,1238.00
2023-04-18T04:11:54.526Z,1238.00
2023-04-18T04:12:54.609Z,1239.00
2023-04-18T04:13:54.695Z,1236.00
2023-04-18T04:14:55.788Z,1232.00
2023-04-18T04:15:54.857Z,1235.00
2023-04-18T04:16:54.918Z,1234.00
2023-04-18T04:17:55.009Z,1233.00
2023-04-18T04:18:55.098Z,1233.00
2023-04-18T04:19:55.142Z,1231.00
2023-04-18T04:20:55.231Z,1230.00
2023-04-18T04:21:55.309Z,1228.00
2023-04-18T04:22:55.381Z,1227.00
2023-04-18T04:23:55.464Z,1224.00
2023-04-18T04:24:55.528Z,1223.00
2023-04-18T04:25:55.607Z,1222.00
2023-04-18T04:26:55.696Z,1217.00
2023-04-18T04:27:55.728Z,1218.00
2023-04-18T04:28:55.804Z,1222.00
2023-04-18T04:29:56.631Z,1222.00
2023-04-18T04:30:55.940Z,1222.00
2023-04-18T04:31:56.050Z,1224.00
2023-04-18T04:32:56.091Z,1226.00
2023-04-18T04:33:56.156Z,1225.00
2023-04-18T04:34:56.238Z,1224.00
2023-04-18T04:35:56.314Z,1222.00
2023-04-18T04:36:56.376Z,1223.00
2023-04-18T04:37:56.460Z,1222.00
2023-04-18T04:38:56.525Z,1222.00
2023-04-18T04:39:57.547Z,1222.00
2023-04-18T04:40:56.559Z,1224.00
2023-04-18T04:41:56.576Z,1223.00
2023-04-18T04:42:57.099Z,1221.00
2023-04-18T04:43:56.601Z,1223.00
2023-04-18T04:44:56.743Z,1225.00
2023-04-18T04:45:56.649Z,1226.00
2023-04-18T04:46:56.658Z,1224.00
2023-04-18T04:47:56.789Z,1223.00
2023-04-18T04:48:56.692Z,1220.00
2023-04-18T04:49:56.711Z,1221.00
2023-04-18T04:50:56.749Z,1222.00
2023-04-18T04:51:56.815Z,1221.00
2023-04-18T04:52:57.103Z,1226.00
2023-04-18T04:53:56.951Z,1224.00
2023-04-18T04:54:57.023Z,1222.00
2023-04-18T04:55:57.100Z,1224.00
2023-04-18T04:56:57.171Z,1226.00
2023-04-18T04:57:57.244Z,1227.00
2023-04-18T04:58:57.308Z,1224.00
2023-04-18T04:59:57.400Z,1224.00
2023-04-18T05:00:57.491Z,1224.00
2023-04-18T05:01:57.563Z,1224.00
2023-04-18T05:02:57.709Z,1225.00
2023-04-18T05:03:57.778Z,1227.00
2023-04-18T05:04:57.729Z,1226.00
2023-04-18T05:05:57.807Z,1224.00
2023-04-18T05:06:57.884Z,1224.00
2023-04-18T05:07:57.945Z,1225.00
2023-04-18T05:08:58.030Z,1217.00
2023-04-18T05:09:58.110Z,1214.00
2023-04-18T05:10:59.113Z,1215.00
2023-04-18T05:11:58.256Z,1217.00
2023-04-18T05:12:58.331Z,1212.00
2023-04-18T05:13:58.398Z,1212.00
2023-04-18T05:14:58.480Z,1214.00
2023-04-18T05:15:58.621Z,1212.00
2023-04-18T05:16:58.659Z,1215.00
2023-04-18T05:17:58.739Z,1216.00
2023-04-18T05:18:58.776Z,1215.00
2023-04-18T05:19:58.844Z,1214.00
2023-04-18T05:20:58.914Z,1213.00
2023-04-18T05:21:58.987Z,1214.00
2023-04-18T05:22:59.161Z,1213.00
2023-04-18T05:23:59.129Z,1214.00
2023-04-18T05:24:59.209Z,1221.00
2023-04-18T05:25:59.519Z,1233.00
2023-04-18T05:26:59.380Z,1328.00
2023-04-18T05:27:59.417Z,1353.00
2023-04-18T05:28:59.481Z,1370.00
2023-04-18T05:29:59.525Z,1384.00
2023-04-18T05:31:00.179Z,1400.00
2023-04-18T05:31:59.590Z,1463.00
2023-04-18T05:32:59.656Z,1508.00
2023-04-18T05:33:59.669Z,1548.00
2023-04-18T05:34:59.697Z,1578.00
2023-04-18T05:35:59.761Z,1623.00
2023-04-18T05:37:00.616Z,1660.00
2023-04-18T05:37:59.732Z,1743.00
2023-04-18T05:38:59.761Z,1731.00
2023-04-18T05:40:00.736Z,1762.00
2023-04-18T05:40:59.767Z,1787.00
2023-04-18T05:41:59.785Z,1808.00
2023-04-18T05:42:59.883Z,1822.00
2023-04-18T05:44:05.401Z,1848.00
2023-04-18T05:45:01.141Z,1867.00
2023-04-18T05:45:59.884Z,1878.00
2023-04-18T05:46:59.848Z,1894.00
2023-04-18T05:47:59.903Z,1921.00
2023-04-18T05:48:59.871Z,1938.00
2023-04-18T05:49:59.857Z,1985.00
2023-04-18T05:51:00.554Z,2002.00
2023-04-18T05:51:59.862Z,2036.00
2023-04-18T05:52:59.858Z,2048.00
2023-04-18T05:53:59.944Z,2069.00
2023-04-18T05:55:00.001Z,2084.00
2023-04-18T05:56:00.073Z,2099.00
2023-04-18T05:57:00.916Z,2128.00
2023-04-18T05:58:00.187Z,2150.00
2023-04-18T05:59:00.215Z,2170.00
2023-04-18T06:00:00.291Z,2208.00
2023-04-18T06:01:00.376Z,2230.00
2023-04-18T06:02:00.466Z,2272.00
2023-04-18T06:03:00.495Z,2364.00
2023-04-18T06:04:00.705Z,2383.00
2023-04-18T06:05:00.577Z,2398.00
2023-04-18T06:06:00.560Z,2446.00
2023-04-18T06:07:00.475Z,2478.00
2023-04-18T06:08:00.493Z,2504.00
2023-04-18T06:09:00.508Z,2541.00
2023-04-18T06:10:00.509Z,2578.00
2023-04-18T06:11:00.506Z,2600.00
2023-04-18T06:12:00.495Z,2654.00
2023-04-18T06:13:00.495Z,2698.00
2023-04-18T06:14:00.494Z,2721.00
2023-04-18T06:15:00.487Z,2727.00
2023-04-18T06:16:00.541Z,2737.00
2023-04-18T06:17:00.486Z,2790.00
2023-04-18T06:18:00.496Z,2990.00
2023-04-18T06:19:01.215Z,2914.00
2023-04-18T06:20:00.501Z,2864.00
2023-04-18T06:21:00.480Z,2853.00
2023-04-18T06:22:00.507Z,2846.00
2023-04-18T06:23:00.513Z,2846.00
2023-04-18T06:24:00.466Z,2834.00
2023-04-18T06:25:00.477Z,2826.00
2023-04-18T06:26:02.120Z,2823.00
2023-04-18T06:27:00.491Z,2811.00
2023-04-18T06:28:00.450Z,2809.00
2023-04-18T06:29:01.548Z,2806.00
2023-04-18T06:30:00.532Z,2807.00
2023-04-18T06:31:00.411Z,2805.00
2023-04-18T06:32:01.202Z,2804.00
2023-04-18T06:33:00.465Z,2800.00
2023-04-18T06:34:00.380Z,2790.00
2023-04-18T06:35:01.145Z,2795.00
2023-04-18T06:36:00.357Z,2790.00
2023-04-18T06:37:00.361Z,2798.00
2023-04-18T06:38:00.354Z,2797.00
2023-04-18T06:39:00.382Z,2790.00
2023-04-18T06:40:00.344Z,2780.00
2023-04-18T06:41:00.355Z,2776.00
2023-04-18T06:42:00.336Z,2768.00
2023-04-18T06:43:00.368Z,2758.00
2023-04-18T06:44:04.283Z,2761.00
2023-04-18T06:45:00.372Z,2761.00
2023-04-18T06:46:00.400Z,2762.00
2023-04-18T06:47:00.345Z,2759.00
2023-04-18T06:48:00.372Z,2758.00
2023-04-18T06:49:00.445Z,2753.00
2023-04-18T06:50:00.364Z,2747.00
2023-04-18T06:51:00.357Z,2748.00
2023-04-18T06:52:00.364Z,2739.00
2023-04-18T06:53:00.364Z,2735.00
2023-04-18T06:54:00.354Z,2736.00
2023-04-18T06:55:00.444Z,2737.00
2023-04-18T06:56:00.371Z,2738.00
2023-04-18T06:57:00.365Z,2736.00
2023-04-18T06:58:00.359Z,2736.00
2023-04-18T06:59:00.372Z,2736.00
2023-04-18T07:00:00.366Z,2741.00
2023-04-18T07:01:00.410Z,2738.00
2023-04-18T07:02:00.400Z,2730.00
2023-04-18T07:03:00.524Z,2730.00
2023-04-18T07:04:00.532Z,2725.00
2023-04-18T07:05:00.369Z,2720.00
2023-04-18T07:06:00.396Z,2720.00
2023-04-18T07:07:00.439Z,2720.00
2023-04-18T07:08:00.396Z,2719.00
2023-04-18T07:09:00.468Z,2714.00
2023-04-18T07:10:00.527Z,2711.00
2023-04-18T07:11:00.597Z,2710.00
2023-04-18T07:12:00.652Z,2702.00
2023-04-18T07:13:00.727Z,2700.00
2023-04-18T07:14:00.776Z,2701.00
2023-04-18T07:15:01.119Z,2698.00
2023-04-18T07:16:00.897Z,2696.00
2023-04-18T07:17:01.003Z,2693.00
2023-04-18T07:18:01.074Z,2698.00
2023-04-18T07:19:01.113Z,2695.00
2023-04-18T07:20:01.163Z,2675.00
2023-04-18T07:21:01.247Z,2687.00
2023-04-18T07:22:01.305Z,2713.00
2023-04-18T07:23:01.338Z,2775.00
2023-04-18T07:24:01.376Z,2866.00
2023-04-18T07:25:01.442Z,2885.00
2023-04-18T07:26:01.420Z,2903.00
2023-04-18T07:27:01.517Z,2949.00
2023-04-18T07:28:01.516Z,2969.00
2023-04-18T07:29:01.457Z,3001.00
2023-04-18T07:30:01.456Z,3033.00
2023-04-18T07:31:02.199Z,3076.00
2023-04-18T07:32:01.446Z,3129.00
2023-04-18T07:33:01.521Z,3163.00
2023-04-18T07:34:01.467Z,3192.00
2023-04-18T07:35:01.526Z,3207.00
2023-04-18T07:36:01.539Z,3227.00
2023-04-18T07:37:01.508Z,3296.00
2023-04-18T07:38:01.548Z,3316.00
2023-04-18T07:39:01.609Z,3326.00
2023-04-18T07:40:01.770Z,3336.00
2023-04-18T07:41:01.697Z,3391.00
2023-04-18T07:42:01.757Z,3409.00
2023-04-18T07:43:01.817Z,3427.00
2023-04-18T07:44:01.964Z,3478.00
2023-04-18T07:45:01.919Z,3509.00
2023-04-18T07:46:02.067Z,3533.00
2023-04-18T07:47:02.058Z,3548.00
2023-04-18T07:48:02.150Z,3570.00
2023-04-18T07:49:02.363Z,3594.00
2023-04-18T07:50:02.190Z,3622.00
2023-04-18T07:51:02.239Z,3677.00
2023-04-18T07:52:02.299Z,3695.00
2023-04-18T07:53:02.380Z,3719.00
2023-04-18T07:54:02.377Z,3773.00
2023-04-18T07:55:02.414Z,3803.00
2023-04-18T07:56:02.460Z,3869.00
2023-04-18T07:57:02.501Z,3903.00
2023-04-18T07:58:02.552Z,3919.00
2023-04-18T07:59:02.631Z,3945.00
2023-04-18T08:00:02.679Z,3979.00
2023-04-18T08:01:02.657Z,4097.00
2023-04-18T08:02:02.786Z,4084.00
2023-04-18T08:03:03.002Z,4106.00
2023-04-18T08:04:02.960Z,4121.00
2023-04-18T08:05:03.074Z,4137.00
2023-04-18T08:06:03.183Z,4203.00
2023-04-18T08:07:02.886Z,4240.00
2023-04-18T08:08:02.906Z,4259.00
2023-04-18T08:09:02.937Z,4293.00
2023-04-18T08:10:03.674Z,4338.00
2023-04-18T08:11:03.021Z,4348.00
2023-04-18T08:12:03.061Z,4366.00
2023-04-18T08:13:03.107Z,4364.00
2023-04-18T08:14:03.149Z,4345.00
2023-04-18T08:15:03.181Z,4337.00
2023-04-18T08:16:03.266Z,4339.00
2023-04-18T08:17:03.315Z,4333.00
2023-04-18T08:18:03.398Z,4343.00
2023-04-18T08:19:03.370Z,3898.00
2023-04-18T08:20:03.324Z,3550.00
2023-04-18T08:21:03.369Z,3337.00
2023-04-18T08:22:03.382Z,2203.00
2023-04-18T08:23:07.921Z,2136.00
2023-04-18T08:24:04.415Z,2414.00
2023-04-18T08:25:05.537Z,2004.00
2023-04-18T08:26:03.488Z,1911.00
2023-04-18T08:27:03.440Z,2206.00
2023-04-18T08:28:03.455Z,2233.00
2023-04-18T08:29:03.468Z,2265.00
2023-04-18T08:30:03.477Z,2289.00
2023-04-18T08:31:03.480Z,2332.00
2023-04-18T08:32:03.603Z,2358.00
2023-04-18T08:33:03.598Z,2402.00
2023-04-18T08:34:05.120Z,2436.00
2023-04-18T08:35:03.640Z,2481.00
2023-04-18T08:36:03.650Z,2531.00
2023-04-18T08:37:03.687Z,2566.00
2023-04-18T08:38:03.715Z,2570.00
2023-04-18T08:39:03.772Z,2588.00
2023-04-18T08:40:03.823Z,2640.00
2023-04-18T08:41:03.864Z,2648.00
2023-04-18T08:42:03.919Z,2724.00
2023-04-18T08:43:04.198Z,2742.00
2023-04-18T08:44:03.999Z,2765.00
2023-04-18T08:45:04.035Z,2778.00
2023-04-18T08:46:04.163Z,2859.00
2023-04-18T08:47:04.083Z,2883.00
2023-04-18T08:48:04.151Z,2940.00
2023-04-18T08:49:04.130Z,2953.00
2023-04-18T08:50:04.154Z,2975.00
2023-04-18T08:51:04.164Z,3011.00
2023-04-18T08:52:04.204Z,3033.00
2023-04-18T08:53:04.209Z,3059.00
2023-04-18T08:54:04.211Z,3086.00
2023-04-18T08:55:04.265Z,3154.00
2023-04-18T08:56:04.694Z,3175.00
2023-04-18T08:57:04.260Z,3265.00
2023-04-18T08:58:04.288Z,3289.00
2023-04-18T08:59:04.279Z,3295.00
2023-04-18T09:00:04.289Z,3340.00
2023-04-18T09:01:04.457Z,3357.00
2023-04-18T09:02:04.332Z,3374.00
2023-04-18T09:03:04.440Z,3397.00
2023-04-18T09:04:04.300Z,3426.00
2023-04-18T09:05:04.286Z,3470.00
2023-04-18T09:06:04.293Z,3508.00
2023-04-18T09:07:04.547Z,3554.00
2023-04-18T09:08:04.253Z,3588.00
2023-04-18T09:09:04.244Z,3605.00
2023-04-18T09:10:04.251Z,3674.00
2023-04-18T09:11:04.236Z,3679.00
2023-04-18T09:12:04.214Z,3688.00
2023-04-18T09:13:04.215Z,3706.00
2023-04-18T09:14:04.194Z,3725.00
2023-04-18T09:15:04.263Z,3780.00
2023-04-18T09:16:04.189Z,3807.00
2023-04-18T09:17:04.183Z,3813.00
2023-04-18T09:18:04.191Z,1986.00
2023-04-18T09:19:05.783Z,2652.00
2023-04-18T09:20:04.438Z,2381.00
2023-04-18T09:21:04.488Z,2131.00
2023-04-18T09:22:04.550Z,2226.00
2023-04-18T09:23:04.631Z,2134.00
2023-04-18T09:24:04.643Z,2035.00
2023-04-18T09:25:04.702Z,2053.00
2023-04-18T09:26:04.719Z,2110.00
2023-04-18T09:27:04.778Z,2136.00
2023-04-18T09:28:04.811Z,2149.00
2023-04-18T09:29:04.847Z,2178.00
2023-04-18T09:30:04.873Z,2236.00
2023-04-18T09:31:04.951Z,2265.00
2023-04-18T09:32:04.951Z,2308.00
2023-04-18T09:33:04.974Z,2322.00
2023-04-18T09:34:04.934Z,2400.00
2023-04-18T09:35:05.103Z,2441.00
2023-04-18T09:36:04.968Z,2451.00
2023-04-18T09:37:04.976Z,2492.00
2023-04-18T09:38:04.936Z,2521.00
2023-04-18T09:39:04.946Z,2610.00
2023-04-18T09:40:04.925Z,2638.00
2023-04-18T09:41:04.913Z,2654.00
2023-04-18T09:42:04.900Z,2673.00
2023-04-18T09:43:04.893Z,2697.00
2023-04-18T09:44:04.867Z,2744.00
2023-04-18T09:45:04.910Z,2793.00
2023-04-18T09:46:04.827Z,2818.00
2023-04-18T09:47:04.798Z,2847.00
2023-04-18T09:48:04.881Z,2924.00
2023-04-18T09:49:04.740Z,2943.00
2023-04-18T09:50:04.790Z,2972.00
2023-04-18T09:51:04.693Z,2990.00
2023-04-18T09:52:04.659Z,3020.00
2023-04-18T09:53:04.671Z,3053.00
2023-04-18T09:54:04.731Z,3081.00
2023-04-18T09:55:04.643Z,3115.00
2023-04-18T09:56:04.705Z,3136.00
2023-04-18T09:57:04.608Z,3177.00
2023-04-18T09:58:04.643Z,3252.00
2023-04-18T09:59:04.539Z,3259.00
2023-04-18T10:00:04.531Z,3281.00
2023-04-18T10:01:04.549Z,3330.00
2023-04-18T10:02:04.640Z,3370.00
2023-04-18T10:03:04.561Z,3392.00
2023-04-18T10:04:04.612Z,3410.00
2023-04-18T10:05:04.619Z,3443.00
2023-04-18T10:06:04.572Z,3481.00
2023-04-18T10:07:04.589Z,3498.00
2023-04-18T10:08:04.669Z,3522.00
2023-04-18T10:09:04.695Z,3597.00
2023-04-18T10:10:04.694Z,3641.00
2023-04-18T10:11:04.659Z,3662.00
2023-04-18T10:12:04.633Z,3679.00
2023-04-18T10:13:04.586Z,3685.00
2023-04-18T10:14:04.567Z,3687.00
2023-04-18T10:15:04.570Z,3230.00
2023-04-18T10:16:04.616Z,2383.00
2023-04-18T10:17:04.568Z,2665.00
2023-04-18T10:18:06.073Z,2223.00
2023-04-18T10:19:04.548Z,2121.00
2023-04-18T10:20:04.553Z,2397.00
2023-04-18T10:21:04.540Z,2037.00
2023-04-18T10:22:05.228Z,2104.00
2023-04-18T10:23:04.577Z,2091.00
2023-04-18T10:24:05.226Z,2164.00
2023-04-18T10:25:04.510Z,2145.00
2023-04-18T10:26:04.557Z,2137.00
2023-04-18T10:27:04.476Z,2133.00
2023-04-18T10:28:05.148Z,2067.00
2023-04-18T10:29:05.155Z,2028.00
2023-04-18T10:30:04.464Z,2009.00
2023-04-18T10:31:04.451Z,1989.00
2023-04-18T10:32:04.450Z,1956.00
2023-04-18T10:33:05.774Z,1917.00
2023-04-18T10:34:05.975Z,1906.00
2023-04-18T10:35:04.359Z,1905.00
2023-04-18T10:36:04.346Z,1892.00
2023-04-18T10:37:04.308Z,1870.00
2023-04-18T10:38:04.263Z,1822.00
2023-04-18T10:39:04.333Z,1843.00
2023-04-18T10:40:04.199Z,1876.00
2023-04-18T10:41:04.172Z,1903.00
2023-04-18T10:42:04.149Z,2010.00
2023-04-18T10:43:04.145Z,2035.00
2023-04-18T10:44:04.300Z,2045.00
2023-04-18T10:45:04.661Z,2075.00
2023-04-18T10:46:04.014Z,2109.00
2023-04-18T10:47:04.015Z,2176.00
2023-04-18T10:48:04.796Z,2194.00
2023-04-18T10:49:03.931Z,2203.00
2023-04-18T10:50:06.281Z,2221.00
2023-04-18T10:51:03.866Z,2277.00
2023-04-18T10:52:03.828Z,2308.00
2023-04-18T10:53:03.790Z,2330.00
2023-04-18T10:54:03.752Z,2340.00
2023-04-18T10:55:03.715Z,2358.00
2023-04-18T10:56:03.694Z,2400.00
2023-04-18T10:57:03.654Z,2456.00
2023-04-18T10:58:03.631Z,2460.00
2023-04-18T10:59:03.570Z,2474.00
2023-04-18T11:00:03.539Z,2515.00
2023-04-18T11:01:03.556Z,2550.00
2023-04-18T11:02:03.508Z,2573.00
2023-04-18T11:03:03.613Z,2625.00
2023-04-18T11:04:03.464Z,2653.00
2023-04-18T11:05:03.369Z,2648.00
2023-04-18T11:06:03.352Z,2647.00
2023-04-18T11:07:03.318Z,2644.00
2023-04-18T11:08:03.275Z,2648.00
2023-04-18T11:09:03.255Z,2644.00
2023-04-18T11:10:03.225Z,2639.00
2023-04-18T11:11:03.175Z,2634.00
2023-04-18T11:12:03.137Z,2634.00
2023-04-18T11:13:03.113Z,2633.00
2023-04-18T11:14:03.081Z,2631.00
2023-04-18T11:15:03.165Z,2627.00
2023-04-18T11:16:03.058Z,2627.00
2023-04-18T11:17:02.990Z,2629.00
2023-04-18T11:18:03.005Z,2624.00
2023-04-18T11:19:02.940Z,2620.00
2023-04-18T11:20:02.929Z,2618.00
2023-04-18T11:21:02.957Z,2619.00
2023-04-18T11:22:02.881Z,2620.00
2023-04-18T11:23:02.822Z,2624.00
2023-04-18T11:24:02.805Z,2625.00
2023-04-18T11:25:03.902Z,2621.00
2023-04-18T11:26:02.771Z,2623.00
2023-04-18T11:27:02.716Z,2622.00
2023-04-18T11:28:02.697Z,2618.00
2023-04-18T11:29:02.662Z,2612.00
2023-04-18T11:30:02.719Z,2609.00
2023-04-18T11:31:02.764Z,2601.00
2023-04-18T11:32:02.689Z,2600.00
2023-04-18T11:33:02.603Z,2599.00
2023-04-18T11:34:02.549Z,2593.00
2023-04-18T11:35:02.511Z,2596.00
2023-04-18T11:36:02.551Z,2601.00
2023-04-18T11:37:02.761Z,2605.00
2023-04-18T11:38:02.431Z,2608.00
2023-04-18T11:39:02.429Z,2610.00
2023-04-18T11:40:02.401Z,2605.00
2023-04-18T11:41:02.370Z,2603.00
2023-04-18T11:42:02.794Z,2598.00
2023-04-18T11:43:02.397Z,2595.00
2023-04-18T11:44:02.305Z,2594.00
2023-04-18T11:45:02.278Z,2592.00
2023-04-18T11:46:02.278Z,2596.00
2023-04-18T11:47:02.274Z,2596.00
2023-04-18T11:48:02.218Z,2590.00
2023-04-18T11:49:02.153Z,2591.00
2023-04-18T11:50:02.154Z,2592.00
2023-04-18T11:51:02.092Z,2590.00
2023-04-18T11:52:02.145Z,2587.00
2023-04-18T11:53:02.040Z,2585.00
2023-04-18T11:54:02.010Z,2581.00
2023-04-18T11:55:01.986Z,2580.00
2023-04-18T11:56:02.003Z,2581.00
2023-04-18T11:57:02.018Z,2579.00
2023-04-18T11:58:02.008Z,2574.00
2023-04-18T11:59:01.992Z,2574.00
2023-04-18T12:00:02.000Z,2570.00
2023-04-18T12:01:01.997Z,2575.00
2023-04-18T12:02:08.878Z,2572.00
2023-04-18T12:03:03.084Z,2571.00
2023-04-18T12:04:02.327Z,2569.00
2023-04-18T12:05:02.374Z,2566.00
2023-04-18T12:06:01.945Z,2566.00